Terminal Aerodrome Forecast
Issued by NWS Wilmington, NC

Home | Current Version | Previous Version | Text Only | Print | Product List | Glossary On
Versions: 1 2 3 4 5 6 7 8 9 10 11 12 13 14
949
FTUS42 KILM 300542 CCA
TAFILM
TAF COR
KILM 300542Z 3006/3106 23004KT P6SM VCSH FEW060 SCT120
      TEMPO 3006/3007 VRB15KT P6SM TSRA SCT060CB BKN100
     FM301300 24008KT P6SM SCT050
     FM301900 21011G16KT P6SM VCTS SCT040CB BKN060
     FM310200 20006KT P6SM SCT250=

USA.gov is the U.S. government's official web portal to all federal, state and local government web resources and services.